createdAt,value
2019-04-10T00:04:36.963Z,3.22
2019-04-10T00:09:41.295Z,3.15
2019-04-10T00:14:45.009Z,2.85
2019-04-10T00:19:48.502Z,3.10
2019-04-10T00:24:52.456Z,3.20
2019-04-10T00:29:56.473Z,3.27
2019-04-10T00:35:00.288Z,2.90
2019-04-10T00:40:04.432Z,2.50
2019-04-10T00:45:09.144Z,3.05
2019-04-10T00:50:12.843Z,2.70
2019-04-10T00:55:16.458Z,3.03
2019-04-10T01:00:21.848Z,3.37
2019-04-10T01:05:25.461Z,2.80
2019-04-10T01:10:28.928Z,2.55
2019-04-10T01:15:32.393Z,3.15
2019-04-10T01:20:35.853Z,2.80
2019-04-10T01:25:39.341Z,2.65
2019-04-10T01:30:42.829Z,2.85
2019-04-10T01:35:46.705Z,2.27
2019-04-10T01:40:51.163Z,2.47
2019-04-10T01:45:54.746Z,2.72
2019-04-10T01:50:59.041Z,2.80
2019-04-10T01:56:03.100Z,2.50
2019-04-10T02:01:08.350Z,2.60
2019-04-10T02:06:11.827Z,2.80
2019-04-10T02:11:15.490Z,2.52
2019-04-10T02:16:19.045Z,2.52
2019-04-10T02:21:23.450Z,2.90
2019-04-10T02:26:27.685Z,2.65
2019-04-10T02:31:32.018Z,2.58
2019-04-10T02:36:36.231Z,2.33
2019-04-10T02:41:41.773Z,2.30
2019-04-10T02:46:45.253Z,2.35
2019-04-10T02:51:49.823Z,2.20
2019-04-10T02:56:54.899Z,2.30
2019-04-10T03:02:00.127Z,2.47
2019-04-10T03:07:04.357Z,2.50
2019-04-10T03:12:08.925Z,2.47
2019-04-10T03:17:13.181Z,2.27
2019-04-10T03:22:16.736Z,2.80
2019-04-10T03:27:20.564Z,2.22
2019-04-10T03:32:50.276Z,2.30
2019-04-10T03:37:48.963Z,2.57
2019-04-10T03:42:53.050Z,2.22
2019-04-10T03:47:57.861Z,2.60
2019-04-10T03:53:02.138Z,2.60
2019-04-10T03:58:05.705Z,2.75
2019-04-10T04:03:09.193Z,2.65
2019-04-10T04:08:13.090Z,3.05
2019-04-10T04:13:17.467Z,2.70
2019-04-10T04:18:21.361Z,2.75
2019-04-10T04:23:25.731Z,2.72
2019-04-10T04:28:29.844Z,2.12
2019-04-10T04:33:34.095Z,2.47
2019-04-10T04:38:37.621Z,2.65
2019-04-10T04:43:43.386Z,2.50
2019-04-10T04:48:47.394Z,2.95
2019-04-10T04:53:50.957Z,2.58
2019-04-10T04:58:54.434Z,2.10
2019-04-10T05:03:58.264Z,2.50
2019-04-10T05:09:02.784Z,2.65
2019-04-10T05:14:06.950Z,2.25
2019-04-10T05:19:10.503Z,2.27
2019-04-10T05:24:13.976Z,2.40
2019-04-10T05:29:18.222Z,2.40
2019-04-10T05:34:21.976Z,2.33
2019-04-10T05:39:26.698Z,2.70
2019-04-10T05:44:31.802Z,2.42
2019-04-10T05:49:35.326Z,2.47
2019-04-10T05:54:39.589Z,2.25
2019-04-10T05:59:43.937Z,2.50
2019-04-10T06:04:47.643Z,2.55
2019-04-10T06:09:55.973Z,2.42
2019-04-10T06:14:56.696Z,2.60
2019-04-10T06:20:00.799Z,2.30
2019-04-10T06:25:08.426Z,2.50
2019-04-10T06:30:12.079Z,2.60
2019-04-10T06:35:15.725Z,2.58
2019-04-10T06:40:22.511Z,2.30
2019-04-10T06:45:24.382Z,2.47
2019-04-10T06:50:29.451Z,8.83
2019-04-10T06:55:33.253Z,10.23
2019-04-10T07:00:37.029Z,9.40
2019-04-10T07:05:49.675Z,9.08
2019-04-10T07:10:54.147Z,9.15
2019-04-10T07:15:54.463Z,9.70
2019-04-10T07:20:59.613Z,9.50
2019-04-10T07:26:01.852Z,9.93
2019-04-10T07:31:08.185Z,8.97
2019-04-10T07:36:13.655Z,7.70
2019-04-10T07:41:21.015Z,7.60
2019-04-10T07:46:21.838Z,6.03
2019-04-10T07:51:25.637Z,5.83
2019-04-10T07:56:29.192Z,6.30
2019-04-10T08:01:33.444Z,6.75
2019-04-10T08:06:37.400Z,5.95
2019-04-10T08:11:40.972Z,5.17
2019-04-10T08:16:45.519Z,5.60
2019-04-10T08:21:49.190Z,5.50
2019-04-10T08:26:52.846Z,5.35
2019-04-10T08:31:56.336Z,5.87
2019-04-10T08:36:59.813Z,5.83
2019-04-10T08:42:03.299Z,5.55
2019-04-10T08:47:06.834Z,6.47
2019-04-10T08:52:10.433Z,5.67
2019-04-10T08:57:13.909Z,6.28
2019-04-10T09:02:18.047Z,6.15
2019-04-10T09:07:22.193Z,6.00
2019-04-10T09:12:26.080Z,6.03
2019-04-10T09:17:29.640Z,5.37
2019-04-10T09:22:49.795Z,5.87
2019-04-10T09:27:38.331Z,6.10
2019-04-10T09:32:42.389Z,5.55
2019-04-10T09:37:46.336Z,4.75
2019-04-10T09:42:50.059Z,5.08
2019-04-10T09:47:53.589Z,4.78
2019-04-10T09:52:57.065Z,4.47
2019-04-10T09:58:00.542Z,4.53
2019-04-10T10:03:04.035Z,4.92
2019-04-10T10:08:08.812Z,4.33
2019-04-10T10:13:13.103Z,4.60
2019-04-10T10:18:17.202Z,4.20
2019-04-10T10:23:20.725Z,3.67
2019-04-10T10:28:24.197Z,4.22
2019-04-10T10:33:27.959Z,4.55
2019-04-10T10:38:31.504Z,4.00
2019-04-10T10:43:34.973Z,4.12
2019-04-10T10:48:38.440Z,4.20
2019-04-10T10:53:41.901Z,4.30
2019-04-10T10:58:46.074Z,4.50
2019-04-10T11:03:50.745Z,4.03
2019-04-10T11:08:55.493Z,3.70
2019-04-10T11:13:59.097Z,3.47
2019-04-10T11:19:02.829Z,3.77
2019-04-10T11:24:07.008Z,3.65
2019-04-10T11:29:11.747Z,3.70
2019-04-10T11:34:16.578Z,3.08
2019-04-10T11:39:25.533Z,3.60
2019-04-10T11:44:27.289Z,2.72
2019-04-10T11:49:31.606Z,3.20
2019-04-10T11:54:40.987Z,2.92
2019-04-10T11:59:41.259Z,3.58
2019-04-10T12:04:52.999Z,3.50
2019-04-10T12:14:56.202Z,3.10
2019-04-10T12:20:00.534Z,2.83
2019-04-10T12:25:05.317Z,3.08
2019-04-10T12:30:11.148Z,2.90
2019-04-10T12:35:15.164Z,2.60
2019-04-10T12:40:19.505Z,2.33
2019-04-10T12:45:24.220Z,2.23
2019-04-10T12:50:28.701Z,2.45
2019-04-10T12:55:32.534Z,2.20
2019-04-10T13:00:36.176Z,2.27
2019-04-10T13:05:39.656Z,1.98
2019-04-10T13:10:45.474Z,2.33
2019-04-10T13:15:49.781Z,2.52
2019-04-10T13:20:53.700Z,1.77
2019-04-10T13:26:01.747Z,2.17
2019-04-10T13:31:03.487Z,2.22
2019-04-10T13:36:07.272Z,1.98
2019-04-10T13:41:10.770Z,2.15
2019-04-10T13:46:14.228Z,2.15
2019-04-10T13:51:17.694Z,2.10
2019-04-10T13:56:21.320Z,2.10
2019-04-10T14:01:29.401Z,2.33
2019-04-10T14:06:33.786Z,1.75
2019-04-10T14:11:37.513Z,2.20
2019-04-10T14:16:41.220Z,1.98
2019-04-10T14:21:45.607Z,1.87
2019-04-10T14:26:52.757Z,1.60
2019-04-10T14:31:58.638Z,2.37
2019-04-10T14:37:03.214Z,2.00
2019-04-10T14:42:06.781Z,1.90
2019-04-10T14:47:11.436Z,1.83
2019-04-10T14:52:15.655Z,1.62
2019-04-10T14:57:19.120Z,1.90
2019-04-10T15:02:22.583Z,1.70
2019-04-10T15:07:26.811Z,1.70
2019-04-10T15:12:30.381Z,1.67
2019-04-10T15:17:33.973Z,1.80
2019-04-10T15:22:37.900Z,2.12
2019-04-10T15:27:41.698Z,1.72
2019-04-10T15:32:45.441Z,1.40
2019-04-10T15:37:49.258Z,1.77
2019-04-10T15:42:52.735Z,1.70
2019-04-10T15:47:58.689Z,1.70
2019-04-10T15:53:02.162Z,1.50
2019-04-10T15:58:06.699Z,5.58
2019-04-10T16:03:11.281Z,9.33
2019-04-10T16:08:16.194Z,8.80
2019-04-10T16:13:38.696Z,6.62
2019-04-10T16:18:42.454Z,5.50
2019-04-10T16:23:47.729Z,5.12
2019-04-10T16:28:51.571Z,4.25
2019-04-10T16:33:55.119Z,4.12
2019-04-10T16:38:58.565Z,3.87
2019-04-10T16:44:02.527Z,3.20
2019-04-10T16:49:06.572Z,3.10
2019-04-10T16:54:10.490Z,3.27
2019-04-10T16:59:14.252Z,3.50
2019-04-10T17:04:18.912Z,2.98
2019-04-10T17:09:24.827Z,2.85
2019-04-10T17:14:29.322Z,2.75
2019-04-10T17:19:44.695Z,2.80
2019-04-10T17:24:38.073Z,2.55
2019-04-10T17:29:41.534Z,2.53
2019-04-10T17:34:45.205Z,2.37
2019-04-10T17:39:49.431Z,2.02
2019-04-10T17:44:53.993Z,2.35
2019-04-10T17:49:58.086Z,2.20
2019-04-10T17:55:01.631Z,2.45
2019-04-10T18:00:22.956Z,2.08
2019-04-10T18:05:26.655Z,2.50
2019-04-10T18:10:41.181Z,1.98
2019-04-10T18:15:35.838Z,2.30
2019-04-10T18:20:40.135Z,1.87
2019-04-10T18:25:44.451Z,2.02
2019-04-10T18:30:48.226Z,2.60
2019-04-10T18:35:51.796Z,2.10
2019-04-10T18:41:00.551Z,2.15
2019-04-10T18:46:10.246Z,2.47
2019-04-10T18:51:07.921Z,2.40
2019-04-10T18:56:11.191Z,2.20
2019-04-10T19:01:19.382Z,2.05
2019-04-10T19:06:34.297Z,2.00
2019-04-10T19:11:38.395Z,1.98
2019-04-10T19:16:42.173Z,1.90
2019-04-10T19:21:46.120Z,2.75
2019-04-10T19:26:49.712Z,1.77
2019-04-10T19:31:54.817Z,1.43
2019-04-10T19:37:00.540Z,1.95
2019-04-10T19:42:05.054Z,1.90
2019-04-10T19:47:08.519Z,1.65
2019-04-10T19:52:12.032Z,1.98
2019-04-10T19:57:15.446Z,2.00
2019-04-10T20:02:19.110Z,1.55
2019-04-10T20:07:22.847Z,1.62
2019-04-10T20:12:26.751Z,2.10
2019-04-10T20:17:30.303Z,1.55
2019-04-10T20:22:33.813Z,2.15
2019-04-10T20:27:38.279Z,1.82
2019-04-10T20:32:42.043Z,1.70
2019-04-10T20:37:45.506Z,1.70
2019-04-10T20:42:48.969Z,1.77
2019-04-10T20:47:52.436Z,1.77
2019-04-10T20:52:55.897Z,1.72
2019-04-10T20:57:59.678Z,1.40
2019-04-10T21:03:03.467Z,1.70
2019-04-10T21:08:07.001Z,1.80
2019-04-10T21:13:10.708Z,1.65
2019-04-10T21:18:15.239Z,1.80
2019-04-10T21:23:19.402Z,1.60
2019-04-10T21:28:22.882Z,1.50
2019-04-10T21:33:43.273Z,1.77
2019-04-10T21:38:48.979Z,1.72
2019-04-10T21:43:52.272Z,1.20
2019-04-10T21:48:57.363Z,1.65
2019-04-10T21:54:02.119Z,1.55
2019-04-10T21:59:05.758Z,1.35
2019-04-10T22:04:10.262Z,1.57
2019-04-10T22:09:16.610Z,1.55
2019-04-10T22:14:21.489Z,1.50
2019-04-10T22:19:26.220Z,1.20
2019-04-10T22:24:29.945Z,1.42
2019-04-10T22:29:33.425Z,1.75
2019-04-10T22:34:36.894Z,1.47
2019-04-10T22:39:40.371Z,1.47
2019-04-10T22:44:46.463Z,1.55
2019-04-10T22:49:49.296Z,1.30
2019-04-10T22:54:53.178Z,1.72
2019-04-10T22:59:57.424Z,1.47
2019-04-10T23:05:01.985Z,1.52
2019-04-10T23:10:11.410Z,1.85
2019-04-10T23:15:15.412Z,1.43
2019-04-10T23:20:18.981Z,1.42
2019-04-10T23:25:22.560Z,1.57
2019-04-10T23:30:26.716Z,1.40
2019-04-10T23:35:30.275Z,1.20
2019-04-10T23:40:34.839Z,1.45
2019-04-10T23:45:38.360Z,1.50
2019-04-10T23:50:42.782Z,1.32
2019-04-10T23:55:46.280Z,1.37
